sensor_id;sensor_type;location;lat;lon;timestamp;temperature;humidity
24452;DHT22;13350;50.984;5.822;2023-03-31T00:01:27;10.60;99.90
24452;DHT22;13350;50.984;5.822;2023-03-31T00:03:56;10.70;99.90
24452;DHT22;13350;50.984;5.822;2023-03-31T00:06:31;10.70;99.90
24452;DHT22;13350;50.984;5.822;2023-03-31T00:09:03;10.70;99.90
24452;DHT22;13350;50.984;5.822;2023-03-31T00:11:30;10.70;99.90
24452;DHT22;13350;50.984;5.822;2023-03-31T00:13:58;10.70;99.90
24452;DHT22;13350;50.984;5.822;2023-03-31T00:16:25;10.60;99.90
24452;DHT22;13350;50.984;5.822;2023-03-31T00:18:52;10.70;99.90
24452;DHT22;13350;50.984;5.822;2023-03-31T00:21:22;10.70;99.90
24452;DHT22;13350;50.984;5.822;2023-03-31T00:24:00;10.70;99.90
24452;DHT22;13350;50.984;5.822;2023-03-31T00:26:28;10.80;99.90
24452;DHT22;13350;50.984;5.822;2023-03-31T00:28:56;10.70;99.90
24452;DHT22;13350;50.984;5.822;2023-03-31T00:31:24;10.80;99.90
24452;DHT22;13350;50.984;5.822;2023-03-31T00:33:53;10.90;99.90
24452;DHT22;13350;50.984;5.822;2023-03-31T00:36:22;10.90;99.90
24452;DHT22;13350;50.984;5.822;2023-03-31T00:38:53;11.00;99.90
24452;DHT22;13350;50.984;5.822;2023-03-31T00:41:21;11.10;99.90
24452;DHT22;13350;50.984;5.822;2023-03-31T00:44:04;11.20;99.90
24452;DHT22;13350;50.984;5.822;2023-03-31T00:46:34;11.30;99.90
24452;DHT22;13350;50.984;5.822;2023-03-31T00:49:04;11.30;99.90
24452;DHT22;13350;50.984;5.822;2023-03-31T00:51:33;11.40;99.90
24452;DHT22;13350;50.984;5.822;2023-03-31T00:54:03;11.40;99.90
24452;DHT22;13350;50.984;5.822;2023-03-31T00:56:36;11.40;99.90
24452;DHT22;13350;50.984;5.822;2023-03-31T00:59:09;11.40;99.90
24452;DHT22;13350;50.984;5.822;2023-03-31T01:01:38;11.40;99.90
24452;DHT22;13350;50.984;5.822;2023-03-31T01:04:11;11.30;99.90
24452;DHT22;13350;50.984;5.822;2023-03-31T01:06:49;11.30;99.90
24452;DHT22;13350;50.984;5.822;2023-03-31T01:09:22;11.20;99.90
24452;DHT22;13350;50.984;5.822;2023-03-31T01:11:50;11.20;99.90
24452;DHT22;13350;50.984;5.822;2023-03-31T01:14:17;11.30;99.90
24452;DHT22;13350;50.984;5.822;2023-03-31T01:16:45;11.30;99.90
24452;DHT22;13350;50.984;5.822;2023-03-31T01:19:19;11.20;99.90
24452;DHT22;13350;50.984;5.822;2023-03-31T01:22:25;11.20;99.90
24452;DHT22;13350;50.984;5.822;2023-03-31T01:28:14;11.10;99.90
24452;DHT22;13350;50.984;5.822;2023-03-31T01:37:14;11.00;99.90
24452;DHT22;13350;50.984;5.822;2023-03-31T01:39:53;11.10;99.90
24452;DHT22;13350;50.984;5.822;2023-03-31T01:42:31;11.10;99.90
24452;DHT22;13350;50.984;5.822;2023-03-31T01:45:09;11.20;99.90
24452;DHT22;13350;50.984;5.822;2023-03-31T01:47:42;11.20;99.90
24452;DHT22;13350;50.984;5.822;2023-03-31T01:50:18;11.30;99.90
24452;DHT22;13350;50.984;5.822;2023-03-31T01:52:55;11.30;99.90
24452;DHT22;13350;50.984;5.822;2023-03-31T01:55:29;11.20;99.90
24452;DHT22;13350;50.984;5.822;2023-03-31T01:58:06;11.20;99.90
24452;DHT22;13350;50.984;5.822;2023-03-31T02:00:39;11.10;99.90
24452;DHT22;13350;50.984;5.822;2023-03-31T02:03:13;11.10;99.90
24452;DHT22;13350;50.984;5.822;2023-03-31T02:05:46;11.00;99.90
24452;DHT22;13350;50.984;5.822;2023-03-31T02:08:16;11.00;99.90
24452;DHT22;13350;50.984;5.822;2023-03-31T02:10:47;11.00;99.90
24452;DHT22;13350;50.984;5.822;2023-03-31T02:13:17;10.90;99.90
24452;DHT22;13350;50.984;5.822;2023-03-31T02:15:46;10.90;99.90
24452;DHT22;13350;50.984;5.822;2023-03-31T02:18:20;10.80;99.90
24452;DHT22;13350;50.984;5.822;2023-03-31T02:20:52;10.80;99.90
24452;DHT22;13350;50.984;5.822;2023-03-31T02:23:24;10.70;99.90
24452;DHT22;13350;50.984;5.822;2023-03-31T02:26:00;10.80;99.90
24452;DHT22;13350;50.984;5.822;2023-03-31T02:28:29;10.70;99.90
24452;DHT22;13350;50.984;5.822;2023-03-31T02:31:05;10.70;99.90
24452;DHT22;13350;50.984;5.822;2023-03-31T02:33:33;10.60;99.90
24452;DHT22;13350;50.984;5.822;2023-03-31T02:36:00;10.60;99.90
24452;DHT22;13350;50.984;5.822;2023-03-31T02:38:29;10.50;99.90
24452;DHT22;13350;50.984;5.822;2023-03-31T02:41:01;10.50;99.90
24452;DHT22;13350;50.984;5.822;2023-03-31T02:43:28;10.50;99.90
24452;DHT22;13350;50.984;5.822;2023-03-31T02:45:55;10.50;99.90
24452;DHT22;13350;50.984;5.822;2023-03-31T02:48:25;10.60;99.90
24452;DHT22;13350;50.984;5.822;2023-03-31T02:51:34;10.60;99.90
24452;DHT22;13350;50.984;5.822;2023-03-31T02:54:16;10.50;99.90
24452;DHT22;13350;50.984;5.822;2023-03-31T02:56:58;10.50;99.90
24452;DHT22;13350;50.984;5.822;2023-03-31T02:59:32;10.50;99.90
24452;DHT22;13350;50.984;5.822;2023-03-31T03:02:13;10.50;99.90
24452;DHT22;13350;50.984;5.822;2023-03-31T03:05:07;10.40;99.90
24452;DHT22;13350;50.984;5.822;2023-03-31T03:07:45;10.40;99.90
24452;DHT22;13350;50.984;5.822;2023-03-31T03:10:18;10.40;99.90
24452;DHT22;13350;50.984;5.822;2023-03-31T03:12:55;10.50;99.90
24452;DHT22;13350;50.984;5.822;2023-03-31T03:15:27;10.50;99.90
24452;DHT22;13350;50.984;5.822;2023-03-31T03:17:57;10.50;99.90
24452;DHT22;13350;50.984;5.822;2023-03-31T03:20:25;10.50;99.90
24452;DHT22;13350;50.984;5.822;2023-03-31T03:22:52;10.60;99.90
24452;DHT22;13350;50.984;5.822;2023-03-31T03:25:19;10.60;99.90
24452;DHT22;13350;50.984;5.822;2023-03-31T03:27:48;10.60;99.90
24452;DHT22;13350;50.984;5.822;2023-03-31T03:30:18;10.70;99.90
24452;DHT22;13350;50.984;5.822;2023-03-31T03:32:45;10.60;99.90
24452;DHT22;13350;50.984;5.822;2023-03-31T03:35:12;10.70;99.90
24452;DHT22;13350;50.984;5.822;2023-03-31T03:37:39;10.70;99.90
24452;DHT22;13350;50.984;5.822;2023-03-31T03:40:08;10.70;99.90
24452;DHT22;13350;50.984;5.822;2023-03-31T03:42:35;10.60;99.90
24452;DHT22;13350;50.984;5.822;2023-03-31T03:45:05;10.50;99.90
24452;DHT22;13350;50.984;5.822;2023-03-31T03:47:33;10.50;99.90
24452;DHT22;13350;50.984;5.822;2023-03-31T03:50:02;10.50;99.90
24452;DHT22;13350;50.984;5.822;2023-03-31T03:52:30;10.40;99.90
24452;DHT22;13350;50.984;5.822;2023-03-31T03:54:57;10.40;99.90
24452;DHT22;13350;50.984;5.822;2023-03-31T03:57:24;10.50;99.90
24452;DHT22;13350;50.984;5.822;2023-03-31T03:59:51;10.50;99.90
24452;DHT22;13350;50.984;5.822;2023-03-31T04:02:20;10.50;99.90
24452;DHT22;13350;50.984;5.822;2023-03-31T04:04:47;10.50;99.90
24452;DHT22;13350;50.984;5.822;2023-03-31T04:07:14;10.40;99.90
24452;DHT22;13350;50.984;5.822;2023-03-31T04:09:42;10.40;99.90
24452;DHT22;13350;50.984;5.822;2023-03-31T04:12:09;10.40;99.90
24452;DHT22;13350;50.984;5.822;2023-03-31T04:14:36;10.50;99.90
24452;DHT22;13350;50.984;5.822;2023-03-31T04:17:04;10.60;99.90
24452;DHT22;13350;50.984;5.822;2023-03-31T04:19:32;10.60;99.90
24452;DHT22;13350;50.984;5.822;2023-03-31T04:21:59;10.60;99.90
24452;DHT22;13350;50.984;5.822;2023-03-31T04:24:27;10.70;99.90
24452;DHT22;13350;50.984;5.822;2023-03-31T04:26:58;10.70;99.90
24452;DHT22;13350;50.984;5.822;2023-03-31T04:29:27;10.80;99.90
24452;DHT22;13350;50.984;5.822;2023-03-31T04:31:58;11.00;99.90
24452;DHT22;13350;50.984;5.822;2023-03-31T04:34:26;11.00;99.90
24452;DHT22;13350;50.984;5.822;2023-03-31T04:37:01;11.10;99.90
24452;DHT22;13350;50.984;5.822;2023-03-31T04:39:29;11.10;99.90
24452;DHT22;13350;50.984;5.822;2023-03-31T04:41:57;11.10;99.90
24452;DHT22;13350;50.984;5.822;2023-03-31T04:44:25;11.00;99.90
24452;DHT22;13350;50.984;5.822;2023-03-31T04:46:53;10.80;99.90
24452;DHT22;13350;50.984;5.822;2023-03-31T04:49:20;10.60;99.90
24452;DHT22;13350;50.984;5.822;2023-03-31T04:51:47;10.50;99.90
24452;DHT22;13350;50.984;5.822;2023-03-31T04:54:16;10.40;99.90
24452;DHT22;13350;50.984;5.822;2023-03-31T04:56:44;10.30;99.90
24452;DHT22;13350;50.984;5.822;2023-03-31T04:59:12;10.40;99.90
24452;DHT22;13350;50.984;5.822;2023-03-31T05:01:39;10.40;99.90
24452;DHT22;13350;50.984;5.822;2023-03-31T05:04:10;10.40;99.90
24452;DHT22;13350;50.984;5.822;2023-03-31T05:06:37;10.40;99.90
24452;DHT22;13350;50.984;5.822;2023-03-31T05:09:04;10.40;99.90
24452;DHT22;13350;50.984;5.822;2023-03-31T05:11:33;10.40;99.90
24452;DHT22;13350;50.984;5.822;2023-03-31T05:14:01;10.40;99.90
24452;DHT22;13350;50.984;5.822;2023-03-31T05:16:28;10.30;99.90
24452;DHT22;13350;50.984;5.822;2023-03-31T05:18:55;10.40;99.90
24452;DHT22;13350;50.984;5.822;2023-03-31T05:21:23;10.30;99.90
24452;DHT22;13350;50.984;5.822;2023-03-31T05:23:52;10.50;99.90
24452;DHT22;13350;50.984;5.822;2023-03-31T05:26:19;10.40;99.90
24452;DHT22;13350;50.984;5.822;2023-03-31T05:28:49;10.50;99.90
24452;DHT22;13350;50.984;5.822;2023-03-31T05:31:19;10.40;99.90
24452;DHT22;13350;50.984;5.822;2023-03-31T05:33:46;10.50;99.90
24452;DHT22;13350;50.984;5.822;2023-03-31T05:36:15;10.50;99.90
24452;DHT22;13350;50.984;5.822;2023-03-31T05:38:43;10.50;99.90
24452;DHT22;13350;50.984;5.822;2023-03-31T05:41:10;10.50;99.90
24452;DHT22;13350;50.984;5.822;2023-03-31T05:43:38;10.30;99.90
24452;DHT22;13350;50.984;5.822;2023-03-31T05:46:06;10.30;99.90
24452;DHT22;13350;50.984;5.822;2023-03-31T05:48:34;10.20;99.90
24452;DHT22;13350;50.984;5.822;2023-03-31T05:51:03;10.30;99.90
24452;DHT22;13350;50.984;5.822;2023-03-31T05:53:30;10.30;99.90
24452;DHT22;13350;50.984;5.822;2023-03-31T05:56:00;10.30;99.90
24452;DHT22;13350;50.984;5.822;2023-03-31T05:58:28;10.30;99.90
24452;DHT22;13350;50.984;5.822;2023-03-31T06:01:07;10.30;99.90
24452;DHT22;13350;50.984;5.822;2023-03-31T06:03:35;10.30;99.90
24452;DHT22;13350;50.984;5.822;2023-03-31T06:06:03;10.20;99.90
24452;DHT22;13350;50.984;5.822;2023-03-31T06:08:33;10.30;99.90
24452;DHT22;13350;50.984;5.822;2023-03-31T06:11:03;10.30;99.90
24452;DHT22;13350;50.984;5.822;2023-03-31T06:13:31;10.40;99.90
24452;DHT22;13350;50.984;5.822;2023-03-31T06:15:59;10.50;99.90
24452;DHT22;13350;50.984;5.822;2023-03-31T06:18:30;10.50;99.90
24452;DHT22;13350;50.984;5.822;2023-03-31T06:20:58;10.60;99.90
24452;DHT22;13350;50.984;5.822;2023-03-31T06:23:25;10.70;99.90
24452;DHT22;13350;50.984;5.822;2023-03-31T06:25:53;10.80;99.90
24452;DHT22;13350;50.984;5.822;2023-03-31T06:28:21;11.00;99.90
24452;DHT22;13350;50.984;5.822;2023-03-31T06:30:48;11.10;99.90
24452;DHT22;13350;50.984;5.822;2023-03-31T06:33:15;11.20;99.90
24452;DHT22;13350;50.984;5.822;2023-03-31T06:35:44;11.20;99.90
24452;DHT22;13350;50.984;5.822;2023-03-31T06:38:11;11.20;99.90
24452;DHT22;13350;50.984;5.822;2023-03-31T06:40:38;11.20;99.90
24452;DHT22;13350;50.984;5.822;2023-03-31T06:43:06;11.30;99.90
24452;DHT22;13350;50.984;5.822;2023-03-31T06:45:33;11.40;99.90
24452;DHT22;13350;50.984;5.822;2023-03-31T06:48:00;11.40;99.90
24452;DHT22;13350;50.984;5.822;2023-03-31T06:50:27;11.40;99.90
24452;DHT22;13350;50.984;5.822;2023-03-31T06:52:56;11.40;99.90
24452;DHT22;13350;50.984;5.822;2023-03-31T06:55:24;11.50;99.90
24452;DHT22;13350;50.984;5.822;2023-03-31T06:57:52;11.50;99.90
24452;DHT22;13350;50.984;5.822;2023-03-31T07:00:19;11.60;99.90
24452;DHT22;13350;50.984;5.822;2023-03-31T07:02:47;11.60;99.90
24452;DHT22;13350;50.984;5.822;2023-03-31T07:05:14;11.60;99.90
24452;DHT22;13350;50.984;5.822;2023-03-31T07:07:41;11.50;99.90
24452;DHT22;13350;50.984;5.822;2023-03-31T07:10:10;11.50;99.90
24452;DHT22;13350;50.984;5.822;2023-03-31T07:12:38;11.50;99.90
24452;DHT22;13350;50.984;5.822;2023-03-31T07:15:06;11.50;99.90
24452;DHT22;13350;50.984;5.822;2023-03-31T07:17:34;11.50;99.90
24452;DHT22;13350;50.984;5.822;2023-03-31T07:20:02;11.60;99.90
24452;DHT22;13350;50.984;5.822;2023-03-31T07:22:31;11.90;99.90
24452;DHT22;13350;50.984;5.822;2023-03-31T07:24:59;12.10;99.90
24452;DHT22;13350;50.984;5.822;2023-03-31T07:27:27;12.30;99.90
24452;DHT22;13350;50.984;5.822;2023-03-31T07:29:55;12.40;99.90
24452;DHT22;13350;50.984;5.822;2023-03-31T07:32:22;12.70;99.90
24452;DHT22;13350;50.984;5.822;2023-03-31T07:34:49;12.80;99.90
24452;DHT22;13350;50.984;5.822;2023-03-31T07:37:17;12.90;99.90
24452;DHT22;13350;50.984;5.822;2023-03-31T07:39:44;13.00;99.90
24452;DHT22;13350;50.984;5.822;2023-03-31T07:42:11;12.90;99.90
24452;DHT22;13350;50.984;5.822;2023-03-31T07:44:40;13.00;99.90
24452;DHT22;13350;50.984;5.822;2023-03-31T07:47:08;13.10;99.90
24452;DHT22;13350;50.984;5.822;2023-03-31T07:49:35;13.10;99.90
24452;DHT22;13350;50.984;5.822;2023-03-31T07:52:03;13.10;99.90
24452;DHT22;13350;50.984;5.822;2023-03-31T07:54:30;13.40;99.90
24452;DHT22;13350;50.984;5.822;2023-03-31T07:56:57;13.40;99.90
24452;DHT22;13350;50.984;5.822;2023-03-31T07:59:26;13.60;99.90
24452;DHT22;13350;50.984;5.822;2023-03-31T08:01:56;13.80;99.90
24452;DHT22;13350;50.984;5.822;2023-03-31T08:04:23;13.90;99.90
24452;DHT22;13350;50.984;5.822;2023-03-31T08:06:51;13.70;99.90
24452;DHT22;13350;50.984;5.822;2023-03-31T08:09:18;13.60;99.90
24452;DHT22;13350;50.984;5.822;2023-03-31T08:11:47;13.50;99.90
24452;DHT22;13350;50.984;5.822;2023-03-31T08:14:14;13.50;99.90
24452;DHT22;13350;50.984;5.822;2023-03-31T08:16:42;13.50;99.90
24452;DHT22;13350;50.984;5.822;2023-03-31T08:19:10;13.60;99.90
24452;DHT22;13350;50.984;5.822;2023-03-31T08:21:38;13.80;99.90
24452;DHT22;13350;50.984;5.822;2023-03-31T08:24:05;13.90;99.90
24452;DHT22;13350;50.984;5.822;2023-03-31T08:26:32;14.00;99.90
24452;DHT22;13350;50.984;5.822;2023-03-31T08:29:00;14.10;99.90
24452;DHT22;13350;50.984;5.822;2023-03-31T08:31:28;14.00;99.90
24452;DHT22;13350;50.984;5.822;2023-03-31T08:33:56;14.00;99.90
24452;DHT22;13350;50.984;5.822;2023-03-31T08:36:25;14.00;99.90
24452;DHT22;13350;50.984;5.822;2023-03-31T08:38:53;14.10;99.90
24452;DHT22;13350;50.984;5.822;2023-03-31T08:41:31;14.00;99.90
24452;DHT22;13350;50.984;5.822;2023-03-31T08:44:01;14.00;99.90
24452;DHT22;13350;50.984;5.822;2023-03-31T08:46:31;13.90;99.90
24452;DHT22;13350;50.984;5.822;2023-03-31T08:49:00;14.00;99.90
24452;DHT22;13350;50.984;5.822;2023-03-31T08:51:32;14.00;99.90
24452;DHT22;13350;50.984;5.822;2023-03-31T08:54:04;13.90;99.90
24452;DHT22;13350;50.984;5.822;2023-03-31T08:56:34;13.60;99.90
24452;DHT22;13350;50.984;5.822;2023-03-31T08:59:04;13.40;99.90
24452;DHT22;13350;50.984;5.822;2023-03-31T09:01:37;13.20;99.90
24452;DHT22;13350;50.984;5.822;2023-03-31T09:04:15;13.20;99.90
24452;DHT22;13350;50.984;5.822;2023-03-31T09:06:53;13.30;99.90
24452;DHT22;13350;50.984;5.822;2023-03-31T09:09:29;13.40;99.90
24452;DHT22;13350;50.984;5.822;2023-03-31T09:12:05;13.50;99.90
24452;DHT22;13350;50.984;5.822;2023-03-31T09:14:37;13.60;99.90
24452;DHT22;13350;50.984;5.822;2023-03-31T09:17:12;13.90;99.90
24452;DHT22;13350;50.984;5.822;2023-03-31T09:19:45;14.00;99.90
24452;DHT22;13350;50.984;5.822;2023-03-31T09:22:19;14.10;99.90
24452;DHT22;13350;50.984;5.822;2023-03-31T09:24:53;14.30;99.90
24452;DHT22;13350;50.984;5.822;2023-03-31T09:27:24;14.70;99.90
24452;DHT22;13350;50.984;5.822;2023-03-31T09:29:56;15.50;99.90
24452;DHT22;13350;50.984;5.822;2023-03-31T09:32:28;15.50;99.90
24452;DHT22;13350;50.984;5.822;2023-03-31T09:34:59;15.20;99.90
24452;DHT22;13350;50.984;5.822;2023-03-31T09:37:30;15.40;99.90
24452;DHT22;13350;50.984;5.822;2023-03-31T09:39:59;15.60;99.90
24452;DHT22;13350;50.984;5.822;2023-03-31T09:42:32;14.90;99.90
24452;DHT22;13350;50.984;5.822;2023-03-31T09:45:00;14.60;99.90
24452;DHT22;13350;50.984;5.822;2023-03-31T09:47:31;14.20;99.90
24452;DHT22;13350;50.984;5.822;2023-03-31T09:49:58;13.80;99.90
24452;DHT22;13350;50.984;5.822;2023-03-31T09:52:30;13.00;99.90
24452;DHT22;13350;50.984;5.822;2023-03-31T09:54:59;12.40;99.90
24452;DHT22;13350;50.984;5.822;2023-03-31T09:57:29;12.30;99.90
24452;DHT22;13350;50.984;5.822;2023-03-31T10:00:03;12.10;99.90
24452;DHT22;13350;50.984;5.822;2023-03-31T10:02:41;11.90;99.90
24452;DHT22;13350;50.984;5.822;2023-03-31T10:05:21;11.90;99.90
24452;DHT22;13350;50.984;5.822;2023-03-31T10:07:53;12.00;99.90
24452;DHT22;13350;50.984;5.822;2023-03-31T10:10:43;12.20;99.90
24452;DHT22;13350;50.984;5.822;2023-03-31T10:13:15;12.30;99.90
24452;DHT22;13350;50.984;5.822;2023-03-31T10:15:43;12.20;99.90
24452;DHT22;13350;50.984;5.822;2023-03-31T10:18:13;12.00;99.90
24452;DHT22;13350;50.984;5.822;2023-03-31T10:20:44;11.90;99.90
24452;DHT22;13350;50.984;5.822;2023-03-31T10:23:20;11.70;99.90
24452;DHT22;13350;50.984;5.822;2023-03-31T10:25:49;11.70;99.90
24452;DHT22;13350;50.984;5.822;2023-03-31T10:28:18;11.60;99.90
24452;DHT22;13350;50.984;5.822;2023-03-31T10:30:48;11.60;99.90
24452;DHT22;13350;50.984;5.822;2023-03-31T10:33:18;11.60;99.90
24452;DHT22;13350;50.984;5.822;2023-03-31T10:35:47;11.80;99.90
24452;DHT22;13350;50.984;5.822;2023-03-31T10:38:24;11.90;99.90
24452;DHT22;13350;50.984;5.822;2023-03-31T10:40:54;12.30;99.90
24452;DHT22;13350;50.984;5.822;2023-03-31T10:43:26;12.50;99.90
24452;DHT22;13350;50.984;5.822;2023-03-31T10:45:56;12.90;99.90
24452;DHT22;13350;50.984;5.822;2023-03-31T10:48:27;13.20;99.90
24452;DHT22;13350;50.984;5.822;2023-03-31T10:50:58;13.30;99.90
24452;DHT22;13350;50.984;5.822;2023-03-31T10:53:27;13.30;99.90
24452;DHT22;13350;50.984;5.822;2023-03-31T10:56:11;13.30;99.90
24452;DHT22;13350;50.984;5.822;2023-03-31T10:58:48;13.40;99.90
24452;DHT22;13350;50.984;5.822;2023-03-31T11:01:28;14.00;99.90
24452;DHT22;13350;50.984;5.822;2023-03-31T11:04:26;14.30;99.90
24452;DHT22;13350;50.984;5.822;2023-03-31T11:07:05;14.30;99.90
24452;DHT22;13350;50.984;5.822;2023-03-31T11:09:43;14.50;99.90
24452;DHT22;13350;50.984;5.822;2023-03-31T11:12:19;14.30;99.90
24452;DHT22;13350;50.984;5.822;2023-03-31T11:14:56;13.90;99.90
24452;DHT22;13350;50.984;5.822;2023-03-31T11:17:34;13.80;99.90
24452;DHT22;13350;50.984;5.822;2023-03-31T11:20:17;13.40;99.90
24452;DHT22;13350;50.984;5.822;2023-03-31T11:22:53;12.80;99.90
24452;DHT22;13350;50.984;5.822;2023-03-31T11:25:24;12.30;99.90
24452;DHT22;13350;50.984;5.822;2023-03-31T11:31:04;12.40;99.90
24452;DHT22;13350;50.984;5.822;2023-03-31T11:33:46;12.70;99.90
24452;DHT22;13350;50.984;5.822;2023-03-31T11:36:27;13.00;99.90
24452;DHT22;13350;50.984;5.822;2023-03-31T11:39:18;13.00;99.90
24452;DHT22;13350;50.984;5.822;2023-03-31T11:41:53;13.30;99.90
24452;DHT22;13350;50.984;5.822;2023-03-31T11:44:23;13.70;99.90
24452;DHT22;13350;50.984;5.822;2023-03-31T11:46:53;13.60;99.90
24452;DHT22;13350;50.984;5.822;2023-03-31T11:49:23;13.60;99.90
24452;DHT22;13350;50.984;5.822;2023-03-31T11:51:55;13.60;99.90
24452;DHT22;13350;50.984;5.822;2023-03-31T11:54:27;13.70;99.90
24452;DHT22;13350;50.984;5.822;2023-03-31T11:57:01;13.70;99.90
24452;DHT22;13350;50.984;5.822;2023-03-31T11:59:31;14.00;99.90
24452;DHT22;13350;50.984;5.822;2023-03-31T12:02:07;14.40;99.90
24452;DHT22;13350;50.984;5.822;2023-03-31T12:04:37;14.40;99.90
24452;DHT22;13350;50.984;5.822;2023-03-31T12:07:18;14.20;99.90
24452;DHT22;13350;50.984;5.822;2023-03-31T12:09:52;13.80;99.90
24452;DHT22;13350;50.984;5.822;2023-03-31T12:12:26;13.50;99.90
24452;DHT22;13350;50.984;5.822;2023-03-31T12:15:02;13.50;99.90
24452;DHT22;13350;50.984;5.822;2023-03-31T12:17:31;13.60;99.90
24452;DHT22;13350;50.984;5.822;2023-03-31T12:20:03;14.10;99.90
24452;DHT22;13350;50.984;5.822;2023-03-31T12:22:38;14.60;99.90
24452;DHT22;13350;50.984;5.822;2023-03-31T12:25:11;15.20;99.90
24452;DHT22;13350;50.984;5.822;2023-03-31T12:27:42;15.80;99.90
24452;DHT22;13350;50.984;5.822;2023-03-31T12:30:12;15.50;99.90
24452;DHT22;13350;50.984;5.822;2023-03-31T12:32:44;15.50;99.90
24452;DHT22;13350;50.984;5.822;2023-03-31T12:35:19;15.20;99.90
24452;DHT22;13350;50.984;5.822;2023-03-31T12:38:11;14.90;99.90
24452;DHT22;13350;50.984;5.822;2023-03-31T12:40:53;15.00;99.90
24452;DHT22;13350;50.984;5.822;2023-03-31T12:43:48;14.50;99.90
24452;DHT22;13350;50.984;5.822;2023-03-31T12:49:25;14.70;99.90
24452;DHT22;13350;50.984;5.822;2023-03-31T12:52:02;14.60;99.90
24452;DHT22;13350;50.984;5.822;2023-03-31T12:54:56;14.50;99.90
24452;DHT22;13350;50.984;5.822;2023-03-31T12:57:28;14.50;99.90
24452;DHT22;13350;50.984;5.822;2023-03-31T13:05:54;14.40;99.90
24452;DHT22;13350;50.984;5.822;2023-03-31T13:08:53;14.20;99.90
24452;DHT22;13350;50.984;5.822;2023-03-31T13:11:32;14.20;99.90
24452;DHT22;13350;50.984;5.822;2023-03-31T13:14:03;14.40;99.90
24452;DHT22;13350;50.984;5.822;2023-03-31T13:16:32;14.30;99.90
24452;DHT22;13350;50.984;5.822;2023-03-31T13:19:00;14.40;99.90
24452;DHT22;13350;50.984;5.822;2023-03-31T13:21:29;14.50;99.90
24452;DHT22;13350;50.984;5.822;2023-03-31T13:23:59;14.60;99.90
24452;DHT22;13350;50.984;5.822;2023-03-31T13:26:40;14.50;99.90
24452;DHT22;13350;50.984;5.822;2023-03-31T13:29:25;14.50;99.90
24452;DHT22;13350;50.984;5.822;2023-03-31T13:32:21;14.70;99.90
24452;DHT22;13350;50.984;5.822;2023-03-31T13:35:13;14.50;99.90
24452;DHT22;13350;50.984;5.822;2023-03-31T13:37:58;14.40;99.90
24452;DHT22;13350;50.984;5.822;2023-03-31T13:40:53;14.40;99.90
24452;DHT22;13350;50.984;5.822;2023-03-31T13:43:42;14.40;99.90
24452;DHT22;13350;50.984;5.822;2023-03-31T13:46:42;14.30;99.90
24452;DHT22;13350;50.984;5.822;2023-03-31T13:49:36;14.10;99.90
24452;DHT22;13350;50.984;5.822;2023-03-31T13:52:09;13.70;99.90
24452;DHT22;13350;50.984;5.822;2023-03-31T13:55:00;13.00;99.90
24452;DHT22;13350;50.984;5.822;2023-03-31T13:57:51;12.50;99.90
24452;DHT22;13350;50.984;5.822;2023-03-31T14:00:39;12.00;99.90
24452;DHT22;13350;50.984;5.822;2023-03-31T14:03:36;11.90;99.90
24452;DHT22;13350;50.984;5.822;2023-03-31T14:06:08;11.80;99.90
24452;DHT22;13350;50.984;5.822;2023-03-31T14:08:47;11.90;99.90
24452;DHT22;13350;50.984;5.822;2023-03-31T14:11:22;11.90;99.90
24452;DHT22;13350;50.984;5.822;2023-03-31T14:14:00;11.70;99.90
24452;DHT22;13350;50.984;5.822;2023-03-31T14:16:30;11.70;99.90
24452;DHT22;13350;50.984;5.822;2023-03-31T14:19:10;11.70;99.90
24452;DHT22;13350;50.984;5.822;2023-03-31T14:21:50;11.60;99.90
24452;DHT22;13350;50.984;5.822;2023-03-31T14:24:28;11.40;99.90
24452;DHT22;13350;50.984;5.822;2023-03-31T14:27:04;11.20;99.90
24452;DHT22;13350;50.984;5.822;2023-03-31T14:29:39;11.20;99.90
24452;DHT22;13350;50.984;5.822;2023-03-31T14:32:17;11.40;99.90
24452;DHT22;13350;50.984;5.822;2023-03-31T14:35:03;11.50;99.90
24452;DHT22;13350;50.984;5.822;2023-03-31T14:37:34;11.60;99.90
24452;DHT22;13350;50.984;5.822;2023-03-31T14:40:02;11.70;99.90
24452;DHT22;13350;50.984;5.822;2023-03-31T14:42:37;11.70;99.90
24452;DHT22;13350;50.984;5.822;2023-03-31T14:45:14;11.70;99.90
24452;DHT22;13350;50.984;5.822;2023-03-31T14:47:50;11.60;99.90
24452;DHT22;13350;50.984;5.822;2023-03-31T14:50:19;11.50;99.90
24452;DHT22;13350;50.984;5.822;2023-03-31T14:52:47;11.50;99.90
24452;DHT22;13350;50.984;5.822;2023-03-31T14:55:15;11.50;99.90
24452;DHT22;13350;50.984;5.822;2023-03-31T14:57:48;11.70;99.90
24452;DHT22;13350;50.984;5.822;2023-03-31T15:00:24;11.70;99.90
24452;DHT22;13350;50.984;5.822;2023-03-31T15:02:53;11.80;99.90
24452;DHT22;13350;50.984;5.822;2023-03-31T15:05:25;11.90;99.90
24452;DHT22;13350;50.984;5.822;2023-03-31T15:07:56;12.10;99.90
24452;DHT22;13350;50.984;5.822;2023-03-31T15:10:24;12.20;99.90
24452;DHT22;13350;50.984;5.822;2023-03-31T15:12:58;12.20;99.90
24452;DHT22;13350;50.984;5.822;2023-03-31T15:15:26;12.30;99.90
24452;DHT22;13350;50.984;5.822;2023-03-31T15:17:53;12.30;99.90
24452;DHT22;13350;50.984;5.822;2023-03-31T15:20:27;12.30;99.90
24452;DHT22;13350;50.984;5.822;2023-03-31T15:22:55;12.40;99.90
24452;DHT22;13350;50.984;5.822;2023-03-31T15:25:25;12.40;99.90
24452;DHT22;13350;50.984;5.822;2023-03-31T15:28:00;12.40;99.90
24452;DHT22;13350;50.984;5.822;2023-03-31T15:30:28;12.20;99.90
24452;DHT22;13350;50.984;5.822;2023-03-31T15:32:56;12.20;99.90
24452;DHT22;13350;50.984;5.822;2023-03-31T15:35:27;12.20;99.90
24452;DHT22;13350;50.984;5.822;2023-03-31T15:37:57;12.10;99.90
24452;DHT22;13350;50.984;5.822;2023-03-31T15:40:26;12.00;99.90
24452;DHT22;13350;50.984;5.822;2023-03-31T15:42:56;12.00;99.90
24452;DHT22;13350;50.984;5.822;2023-03-31T15:45:44;11.90;99.90
24452;DHT22;13350;50.984;5.822;2023-03-31T15:48:20;11.90;99.90
24452;DHT22;13350;50.984;5.822;2023-03-31T15:50:48;11.90;99.90
24452;DHT22;13350;50.984;5.822;2023-03-31T15:53:29;12.00;99.90
24452;DHT22;13350;50.984;5.822;2023-03-31T15:55:58;12.10;99.90
24452;DHT22;13350;50.984;5.822;2023-03-31T15:58:53;12.10;99.90
24452;DHT22;13350;50.984;5.822;2023-03-31T16:01:23;12.00;99.90
24452;DHT22;13350;50.984;5.822;2023-03-31T16:03:54;11.90;99.90
24452;DHT22;13350;50.984;5.822;2023-03-31T16:06:27;11.80;99.90
24452;DHT22;13350;50.984;5.822;2023-03-31T16:08:58;11.70;99.90
24452;DHT22;13350;50.984;5.822;2023-03-31T16:11:35;11.60;99.90
24452;DHT22;13350;50.984;5.822;2023-03-31T16:14:08;11.40;99.90
24452;DHT22;13350;50.984;5.822;2023-03-31T16:16:39;11.20;99.90
24452;DHT22;13350;50.984;5.822;2023-03-31T16:19:08;11.10;99.90
24452;DHT22;13350;50.984;5.822;2023-03-31T16:21:39;11.10;99.90
24452;DHT22;13350;50.984;5.822;2023-03-31T16:24:07;10.90;99.90